createdAt,value
2019-06-10T00:02:11.040Z,98724.37
2019-06-10T00:04:41.709Z,98711.72
2019-06-10T00:07:12.041Z,98686.53
2019-06-10T00:09:42.338Z,98676.88
2019-06-10T00:12:13.091Z,98684.52
2019-06-10T00:14:43.393Z,98706.44
2019-06-10T00:17:13.770Z,98725.08
2019-06-10T00:19:44.703Z,98764.56
2019-06-10T00:22:14.918Z,98801.28
2019-06-10T00:24:45.199Z,98836.66
2019-06-10T00:27:16.355Z,98840.33
2019-06-10T00:29:46.876Z,98820.87
2019-06-10T00:32:17.080Z,98733.45
2019-06-10T00:34:47.315Z,98725.80
2019-06-10T00:37:17.691Z,98685.99
2019-06-10T00:39:47.898Z,98694.23
2019-06-10T00:42:21.152Z,98683.27
2019-06-10T00:44:50.947Z,98688.78
2019-06-10T00:47:21.298Z,98704.63
2019-06-10T00:49:51.656Z,98720.70
2019-06-10T00:52:21.799Z,98713.80
2019-06-10T00:54:52.092Z,98726.63
2019-06-10T00:57:22.248Z,98733.69
2019-06-10T00:59:52.446Z,98753.43
2019-06-10T01:02:22.762Z,98773.61
2019-06-10T01:04:54.253Z,98799.67
2019-06-10T01:07:24.458Z,98803.20
2019-06-10T01:09:54.820Z,98812.48
2019-06-10T01:12:24.999Z,98823.88
2019-06-10T01:14:55.285Z,98809.02
2019-06-10T01:17:25.649Z,98780.72
2019-06-10T01:19:55.943Z,98763.98
2019-06-10T01:22:26.197Z,98723.30
2019-06-10T01:24:57.078Z,98699.41
2019-06-10T01:27:27.258Z,98695.08
2019-06-10T01:29:57.548Z,98701.47
2019-06-10T01:32:27.831Z,98717.41
2019-06-10T01:34:58.074Z,98724.43
2019-06-10T01:37:30.966Z,98722.81
2019-06-10T01:40:01.158Z,98709.16
2019-06-10T01:42:31.421Z,98687.44
2019-06-10T01:45:01.884Z,98672.34
2019-06-10T01:47:32.142Z,98655.33
2019-06-10T01:50:02.371Z,98658.78
2019-06-10T01:52:32.588Z,98670.91
2019-06-10T01:55:02.819Z,98662.23
2019-06-10T01:57:33.288Z,98653.28
2019-06-10T02:00:09.348Z,98636.87
2019-06-10T02:02:35.826Z,98616.71
2019-06-10T02:05:09.066Z,98613.19
2019-06-10T02:07:40.990Z,98621.61
2019-06-10T02:10:15.183Z,98616.44
2019-06-10T02:12:43.747Z,98611.06
2019-06-10T02:15:15.587Z,98632.73
2019-06-10T02:19:36.304Z,98628.78
2019-06-10T02:22:06.699Z,98636.48
2019-06-10T02:24:36.961Z,98625.64
2019-06-10T02:27:07.277Z,98604.30
2019-06-10T02:29:38.589Z,98573.02
2019-06-10T02:32:12.399Z,98567.74
2019-06-10T02:34:53.578Z,98581.80
2019-06-10T02:37:15.639Z,98599.37
2019-06-10T02:39:44.666Z,98590.23
2019-06-10T02:42:30.819Z,98602.14
2019-06-10T02:45:03.816Z,98595.19
2019-06-10T02:47:37.638Z,98575.58
2019-06-10T02:50:08.859Z,98565.23
2019-06-10T02:52:38.911Z,98551.27
2019-06-10T02:55:09.406Z,98549.62
2019-06-10T02:57:44.431Z,98564.72
2019-06-10T03:00:20.960Z,98582.91
2019-06-10T03:02:45.463Z,98595.98
2019-06-10T03:05:17.602Z,98573.50
2019-06-10T03:07:47.927Z,98543.91
2019-06-10T03:10:20.704Z,98548.98
2019-06-10T03:12:50.064Z,98592.36
2019-06-10T03:15:20.324Z,98596.05
2019-06-10T03:17:52.170Z,98574.17
2019-06-10T03:20:24.093Z,98568.95
2019-06-10T03:22:54.319Z,98554.30
2019-06-10T03:25:26.081Z,98534.23
2019-06-10T03:27:56.497Z,98525.91
2019-06-10T03:30:41.247Z,98523.33
2019-06-10T03:32:58.738Z,98532.63
2019-06-10T03:35:28.920Z,98541.41
2019-06-10T03:37:59.129Z,98540.83
2019-06-10T03:40:29.374Z,98542.84
2019-06-10T03:42:59.578Z,98554.94
2019-06-10T03:45:32.274Z,98547.58
2019-06-10T03:48:03.714Z,98543.71
2019-06-10T03:50:34.093Z,98556.28
2019-06-10T03:53:04.535Z,98566.07
2019-06-10T03:55:35.384Z,98565.12
2019-06-10T03:58:05.990Z,98550.33
2019-06-10T04:00:37.125Z,98542.77
2019-06-10T04:03:07.603Z,98535.36
2019-06-10T04:05:37.882Z,98527.86
2019-06-10T04:08:08.523Z,98533.63
2019-06-10T04:10:39.441Z,98542.23
2019-06-10T04:13:09.731Z,98547.28
2019-06-10T04:15:39.959Z,98556.70
2019-06-10T04:18:12.576Z,98560.80
2019-06-10T04:20:42.965Z,98555.27
2019-06-10T04:23:13.159Z,98550.09
2019-06-10T04:25:44.680Z,98537.98
2019-06-10T04:28:14.943Z,98545.60
2019-06-10T04:30:45.169Z,98535.98
2019-06-10T04:33:15.734Z,98551.66
2019-06-10T04:35:46.371Z,98554.06
2019-06-10T04:38:16.647Z,98557.73
2019-06-10T04:40:47.444Z,98569.91
2019-06-10T04:43:18.493Z,98565.22
2019-06-10T04:45:49.690Z,98570.23
2019-06-10T04:48:21.237Z,98584.08
2019-06-10T04:50:53.390Z,98583.52
2019-06-10T04:53:26.432Z,98584.78
2019-06-10T04:55:55.898Z,98594.34
2019-06-10T04:58:27.599Z,98612.98
2019-06-10T05:00:57.986Z,98636.48
2019-06-10T05:03:29.522Z,98651.52
2019-06-10T05:06:00.027Z,98665.98
2019-06-10T05:08:30.249Z,98671.37
2019-06-10T05:11:00.538Z,98660.16
2019-06-10T05:13:33.631Z,98649.80
2019-06-10T05:16:03.851Z,98639.63
2019-06-10T05:18:34.187Z,98637.25
2019-06-10T05:21:04.645Z,98627.77
2019-06-10T05:23:36.006Z,98630.25
2019-06-10T05:26:06.299Z,98620.83
2019-06-10T05:28:37.025Z,98620.08
2019-06-10T05:31:07.344Z,98622.77
2019-06-10T05:33:37.585Z,98615.89
2019-06-10T05:36:09.429Z,98621.11
2019-06-10T05:38:39.740Z,98621.81
2019-06-10T05:41:10.001Z,98611.02
2019-06-10T05:43:42.771Z,98611.02
2019-06-10T05:46:13.364Z,98617.94
2019-06-10T05:48:44.047Z,98615.39
2019-06-10T05:51:16.282Z,98613.52
2019-06-10T05:53:46.594Z,98600.52
2019-06-10T05:56:16.808Z,98608.80
2019-06-10T05:58:47.033Z,98614.42
2019-06-10T06:01:17.298Z,98627.58
2019-06-10T06:03:47.916Z,98622.84
2019-06-10T06:06:18.450Z,98613.41
2019-06-10T06:08:48.766Z,98600.63
2019-06-10T06:11:19.039Z,98597.45
2019-06-10T06:13:52.060Z,98598.92
2019-06-10T06:16:23.121Z,98598.92
2019-06-10T06:18:53.528Z,98617.06
2019-06-10T06:21:30.031Z,98605.34
2019-06-10T06:23:56.403Z,98589.49
2019-06-10T06:26:28.545Z,98582.42
2019-06-10T06:28:59.012Z,98553.69
2019-06-10T06:31:30.811Z,98512.14
2019-06-10T06:34:03.041Z,98472.39
2019-06-10T06:36:35.370Z,98487.80
2019-06-10T06:39:08.114Z,98534.03
2019-06-10T06:41:39.139Z,98554.75
2019-06-10T06:44:09.466Z,98551.41
2019-06-10T06:46:39.820Z,98544.27
2019-06-10T06:49:12.608Z,98556.46
2019-06-10T06:51:51.767Z,98583.41
2019-06-10T06:54:15.258Z,98586.15
2019-06-10T06:56:45.593Z,98569.30
2019-06-10T06:59:15.842Z,98551.41
2019-06-10T07:01:46.575Z,98534.92
2019-06-10T07:04:16.897Z,98516.53
2019-06-10T07:06:47.440Z,98521.77
2019-06-10T07:09:18.883Z,98535.77
2019-06-10T07:11:49.933Z,98538.91
2019-06-10T07:14:23.206Z,98513.65
2019-06-10T07:16:53.121Z,98498.98
2019-06-10T07:19:23.778Z,98478.60
2019-06-10T07:22:08.277Z,98446.67
2019-06-10T07:24:26.086Z,98425.92
2019-06-10T07:26:57.401Z,98415.56
2019-06-10T07:29:27.945Z,98391.61
2019-06-10T07:31:58.474Z,98392.09
2019-06-10T07:34:32.556Z,98397.88
2019-06-10T07:37:02.633Z,98402.66
2019-06-10T07:39:35.293Z,98408.42
2019-06-10T07:42:05.390Z,98395.61
2019-06-10T07:44:36.338Z,98396.30
2019-06-10T07:47:07.762Z,98399.80
2019-06-10T07:49:39.277Z,98393.42
2019-06-10T07:52:18.595Z,98381.53
2019-06-10T07:54:44.053Z,98387.20
2019-06-10T07:57:14.511Z,98382.41
2019-06-10T07:59:46.075Z,98370.44
2019-06-10T08:02:16.497Z,98369.90
2019-06-10T08:04:46.788Z,98360.75
2019-06-10T08:07:17.060Z,98362.02
2019-06-10T08:09:47.517Z,98357.33
2019-06-10T08:12:17.767Z,98367.53
2019-06-10T08:14:48.357Z,98384.27
2019-06-10T08:17:18.642Z,98404.06
2019-06-10T08:19:51.143Z,98420.95
2019-06-10T08:22:31.233Z,98450.84
2019-06-10T08:24:53.260Z,98479.66
2019-06-10T08:27:23.513Z,98485.56
2019-06-10T08:30:13.173Z,98489.25
2019-06-10T08:32:26.048Z,98488.75
2019-06-10T08:34:56.233Z,98485.34
2019-06-10T08:37:26.536Z,98478.59
2019-06-10T08:39:56.785Z,98456.81
2019-06-10T08:42:27.434Z,98435.91
2019-06-10T08:44:59.936Z,98392.27
2019-06-10T08:47:29.581Z,98372.16
2019-06-10T08:50:02.436Z,98352.52
2019-06-10T08:52:48.912Z,98337.05
2019-06-10T08:55:03.758Z,98322.39
2019-06-10T08:57:34.399Z,98319.68
2019-06-10T09:00:11.652Z,98298.41
2019-06-10T09:02:39.121Z,98282.77
2019-06-10T09:05:13.167Z,98288.28
2019-06-10T09:07:48.026Z,98289.70
2019-06-10T09:10:17.778Z,98280.86
2019-06-10T09:12:51.341Z,98260.27
2019-06-10T09:15:21.408Z,98249.02
2019-06-10T09:17:56.063Z,98257.42
2019-06-10T09:20:25.619Z,98254.30
2019-06-10T09:23:15.061Z,98270.90
2019-06-10T09:25:28.050Z,98284.97
2019-06-10T09:27:58.239Z,98303.38
2019-06-10T09:30:28.555Z,98316.65
2019-06-10T09:33:03.442Z,98347.42
2019-06-10T09:35:32.348Z,98361.94
2019-06-10T09:38:03.751Z,98390.78
2019-06-10T09:41:06.352Z,98433.44
2019-06-10T09:43:37.010Z,98434.27
2019-06-10T09:46:07.296Z,98373.97
2019-06-10T09:48:37.557Z,98409.02
2019-06-10T09:51:07.844Z,98422.31
2019-06-10T09:53:42.700Z,98390.14
2019-06-10T09:56:12.343Z,98390.02
2019-06-10T09:58:46.286Z,98388.83
2019-06-10T10:01:14.058Z,98374.26
2019-06-10T10:03:47.756Z,98367.94
2019-06-10T10:06:16.377Z,98363.57
2019-06-10T10:08:52.670Z,98364.36
2019-06-10T10:11:19.033Z,98353.89
2019-06-10T10:13:51.143Z,98370.63
2019-06-10T10:16:23.196Z,98376.52
2019-06-10T10:19:00.145Z,98368.88
2019-06-10T10:21:25.468Z,98364.11
2019-06-10T10:24:06.959Z,98348.16
2019-06-10T10:26:27.989Z,98337.25
2019-06-10T10:28:58.255Z,98323.98
2019-06-10T10:31:28.513Z,98316.53
2019-06-10T10:33:58.781Z,98313.22
2019-06-10T10:36:29.366Z,98299.95
2019-06-10T10:39:02.284Z,98288.97
2019-06-10T10:41:33.518Z,98300.38
2019-06-10T10:44:03.807Z,98307.09
2019-06-10T10:46:34.159Z,98306.05
2019-06-10T10:49:04.617Z,98306.11
2019-06-10T10:51:34.935Z,98300.66
2019-06-10T10:54:24.690Z,98294.21
2019-06-10T10:56:38.765Z,98282.75
2019-06-10T10:59:09.590Z,98296.98
2019-06-10T11:01:42.304Z,98348.54
2019-06-10T11:04:13.275Z,98407.55
2019-06-10T11:06:44.541Z,98435.66
2019-06-10T11:09:17.437Z,98414.58
2019-06-10T11:11:53.349Z,98398.04
2019-06-10T11:14:23.018Z,98389.33
2019-06-10T11:16:56.656Z,98395.69
2019-06-10T11:19:25.616Z,98391.81
2019-06-10T11:21:55.824Z,98400.69
2019-06-10T11:24:36.795Z,98412.86
2019-06-10T11:26:58.419Z,98424.68
2019-06-10T11:29:29.049Z,98442.98
2019-06-10T11:31:59.231Z,98450.79
2019-06-10T11:34:29.794Z,98467.02
2019-06-10T11:37:02.303Z,98465.67
2019-06-10T11:39:33.817Z,98443.59
2019-06-10T11:42:04.404Z,98425.86
2019-06-10T11:44:34.665Z,98426.19
2019-06-10T11:47:05.013Z,98431.39
2019-06-10T11:49:36.342Z,98419.34
2019-06-10T11:52:06.587Z,98417.77
2019-06-10T11:54:53.788Z,98430.09
2019-06-10T11:57:09.546Z,98433.47
2019-06-10T11:59:40.399Z,98430.25
2019-06-10T12:02:13.186Z,98430.25
2019-06-10T12:04:42.988Z,98424.84
2019-06-10T12:07:13.256Z,98408.09
2019-06-10T12:09:43.550Z,98382.70
2019-06-10T12:12:13.798Z,98374.22
2019-06-10T12:14:44.002Z,98359.17
2019-06-10T12:17:29.697Z,98329.13
2019-06-10T12:19:46.183Z,98301.89
2019-06-10T12:22:16.501Z,98282.20
2019-06-10T12:24:46.830Z,98253.39
2019-06-10T12:27:17.082Z,98238.77
2019-06-10T12:29:47.422Z,98207.56
2019-06-10T12:32:17.669Z,98194.34
2019-06-10T12:34:47.964Z,98198.26
2019-06-10T12:37:18.505Z,98209.11
2019-06-10T12:39:48.778Z,98217.48
2019-06-10T12:42:19.060Z,98214.30
2019-06-10T12:44:49.310Z,98227.46
2019-06-10T12:47:19.801Z,98232.89
2019-06-10T12:49:52.108Z,98236.71
2019-06-10T12:52:22.957Z,98247.09
2019-06-10T12:54:53.400Z,98249.44
2019-06-10T12:57:23.651Z,98246.23
2019-06-10T12:59:54.116Z,98245.20
2019-06-10T13:02:31.184Z,98249.72
2019-06-10T13:04:57.625Z,98258.63
2019-06-10T13:07:29.374Z,98279.36
2019-06-10T13:09:59.749Z,98272.49
2019-06-10T13:12:33.127Z,98286.86
2019-06-10T13:15:05.481Z,98294.09
2019-06-10T13:17:34.456Z,98312.72
2019-06-10T13:20:06.441Z,98314.08
2019-06-10T13:22:38.169Z,98320.23
2019-06-10T13:25:08.675Z,98315.26
2019-06-10T13:27:39.278Z,98306.38
2019-06-10T13:30:09.894Z,98294.31
2019-06-10T13:32:40.183Z,98296.94
2019-06-10T13:35:12.455Z,98306.72
2019-06-10T13:37:42.862Z,98320.35
2019-06-10T13:40:13.552Z,98316.07
2019-06-10T13:42:43.749Z,98323.35
2019-06-10T13:45:14.638Z,98321.34
2019-06-10T13:47:45.209Z,98316.86
2019-06-10T13:50:19.324Z,98297.80
2019-06-10T13:52:49.072Z,98282.44
2019-06-10T13:55:19.434Z,98280.71
2019-06-10T13:57:50.418Z,98274.60
2019-06-10T14:00:40.653Z,98274.52
2019-06-10T14:02:55.259Z,98277.45
2019-06-10T14:05:25.511Z,98279.09
2019-06-10T14:07:55.822Z,98284.86
2019-06-10T14:10:26.053Z,98295.12
2019-06-10T14:12:56.654Z,98293.50
2019-06-10T14:15:26.938Z,98302.70
2019-06-10T14:17:57.175Z,98303.38
2019-06-10T14:20:27.462Z,98319.53
2019-06-10T14:22:57.665Z,98338.59
2019-06-10T14:25:28.315Z,98358.12
2019-06-10T14:27:59.275Z,98360.55
2019-06-10T14:30:32.208Z,98362.97
2019-06-10T14:33:04.236Z,98368.21
2019-06-10T14:35:34.834Z,98372.78
2019-06-10T14:38:06.383Z,98372.78
2019-06-10T14:40:37.127Z,98364.34
2019-06-10T14:43:08.248Z,98353.19
2019-06-10T14:45:38.669Z,98334.98
2019-06-10T14:48:08.918Z,98327.88
2019-06-10T14:50:39.186Z,98325.84
2019-06-10T14:53:09.410Z,98319.29
2019-06-10T14:55:43.042Z,98325.17
2019-06-10T14:58:13.805Z,98326.84
2019-06-10T15:00:45.611Z,98321.41
2019-06-10T15:03:19.749Z,98316.70
2019-06-10T15:05:48.254Z,98314.60
2019-06-10T15:08:19.740Z,98301.05
2019-06-10T15:10:52.513Z,98283.92
2019-06-10T15:13:23.501Z,98278.20
2019-06-10T15:15:54.523Z,98268.39
2019-06-10T15:18:24.857Z,98252.21
2019-06-10T15:20:55.081Z,98238.11
2019-06-10T15:23:25.369Z,98231.78
2019-06-10T15:25:57.276Z,98229.42
2019-06-10T15:28:27.527Z,98232.31
2019-06-10T15:30:57.870Z,98225.22
2019-06-10T15:33:28.290Z,98251.59
2019-06-10T15:35:58.911Z,98264.84
2019-06-10T15:38:29.133Z,98265.84
2019-06-10T15:41:00.989Z,98257.11
2019-06-10T15:43:33.085Z,98257.11
2019-06-10T15:46:03.507Z,98257.27
2019-06-10T15:48:33.708Z,98266.05
2019-06-10T15:51:04.204Z,98266.94
2019-06-10T15:53:34.481Z,98255.19
2019-06-10T15:56:16.759Z,98266.67
2019-06-10T15:58:36.784Z,98272.59
2019-06-10T16:01:07.016Z,98270.41
2019-06-10T16:03:37.322Z,98259.25
2019-06-10T16:06:07.591Z,98248.39
2019-06-10T16:08:37.941Z,98259.34
2019-06-10T16:11:08.354Z,98268.22
2019-06-10T16:13:39.053Z,98277.84
2019-06-10T16:16:09.433Z,98274.45
2019-06-10T16:18:42.154Z,98283.77
2019-06-10T16:21:13.292Z,98289.70
2019-06-10T16:23:43.967Z,98293.70
2019-06-10T16:26:14.898Z,98294.52
2019-06-10T16:28:46.592Z,98294.37
2019-06-10T16:31:18.254Z,98298.58
2019-06-10T16:33:49.620Z,98289.61
2019-06-10T16:36:21.844Z,98277.55
2019-06-10T16:38:52.895Z,98265.88
2019-06-10T16:41:26.077Z,98271.75
2019-06-10T16:43:55.216Z,98261.97
2019-06-10T16:46:26.834Z,98252.00
2019-06-10T16:48:58.318Z,98242.83
2019-06-10T16:51:29.806Z,98239.22
2019-06-10T16:54:02.287Z,98230.79
2019-06-10T16:56:33.617Z,98216.95
2019-06-10T16:59:04.106Z,98217.58
2019-06-10T17:01:35.269Z,98227.05
2019-06-10T17:04:05.845Z,98232.21
2019-06-10T17:06:36.391Z,98237.04
2019-06-10T17:09:08.061Z,98249.09
2019-06-10T17:11:38.426Z,98254.77
2019-06-10T17:14:08.926Z,98261.27
2019-06-10T17:16:40.719Z,98258.61
2019-06-10T17:19:11.265Z,98256.23
2019-06-10T17:21:42.513Z,98248.80
2019-06-10T17:24:12.927Z,98244.91
2019-06-10T17:26:44.383Z,98243.71
2019-06-10T17:29:14.601Z,98245.41
2019-06-10T17:31:44.784Z,98246.09
2019-06-10T17:34:15.084Z,98247.49
2019-06-10T17:36:45.731Z,98244.48
2019-06-10T17:39:16.050Z,98234.39
2019-06-10T17:41:46.338Z,98236.94
2019-06-10T17:44:16.603Z,98248.58
2019-06-10T17:46:48.506Z,98256.00
2019-06-10T17:49:18.724Z,98261.72
2019-06-10T17:51:48.994Z,98269.43
2019-06-10T17:54:19.315Z,98271.81
2019-06-10T17:56:49.556Z,98270.81
2019-06-10T17:59:22.087Z,98277.25
2019-06-10T18:01:52.440Z,98284.52
2019-06-10T18:04:24.030Z,98284.69
2019-06-10T18:06:55.087Z,98268.87
2019-06-10T18:09:26.136Z,98264.81
2019-06-10T18:11:56.752Z,98268.52
2019-06-10T18:14:28.158Z,98270.22
2019-06-10T18:16:58.892Z,98284.39
2019-06-10T18:19:30.513Z,98289.48
2019-06-10T18:22:03.108Z,98280.93
2019-06-10T18:24:33.377Z,98267.27
2019-06-10T18:27:03.681Z,98256.83
2019-06-10T18:29:35.776Z,98252.77
2019-06-10T18:32:05.941Z,98252.11
2019-06-10T18:34:37.993Z,98247.74
2019-06-10T18:37:09.108Z,98266.75
2019-06-10T18:39:39.974Z,98295.25
2019-06-10T18:42:12.520Z,98314.09
2019-06-10T18:44:42.373Z,98326.23
2019-06-10T18:47:13.443Z,98332.30
2019-06-10T18:49:43.899Z,98344.44
2019-06-10T18:52:16.624Z,98351.83
2019-06-10T18:54:46.901Z,98356.89
2019-06-10T18:57:17.442Z,98357.83
2019-06-10T18:59:47.767Z,98355.74
2019-06-10T19:02:18.789Z,98334.97
2019-06-10T19:04:49.003Z,98327.34
2019-06-10T19:07:19.290Z,98333.70
2019-06-10T19:09:49.907Z,98328.28
2019-06-10T19:12:22.324Z,98323.87
2019-06-10T19:14:52.392Z,98323.37
2019-06-10T19:17:23.246Z,98315.41
2019-06-10T19:19:53.531Z,98322.45
2019-06-10T19:22:24.131Z,98327.48
2019-06-10T19:24:54.718Z,98329.51
2019-06-10T19:27:24.971Z,98325.11
2019-06-10T19:29:55.756Z,98322.23
2019-06-10T19:32:25.947Z,98326.41
2019-06-10T19:34:56.535Z,98332.44
2019-06-10T19:37:26.734Z,98348.13
2019-06-10T19:39:57.380Z,98362.41
2019-06-10T19:42:27.699Z,98362.89
2019-06-10T19:44:58.321Z,98354.16
2019-06-10T19:47:32.645Z,98357.68
2019-06-10T19:50:03.054Z,98350.67
2019-06-10T19:52:35.123Z,98347.98
2019-06-10T19:55:07.245Z,98346.97
2019-06-10T19:57:37.803Z,98348.27
2019-06-10T20:00:12.354Z,98346.27
2019-06-10T20:02:44.452Z,98342.79
2019-06-10T20:05:14.282Z,98338.74
2019-06-10T20:07:50.271Z,98334.34
2019-06-10T20:10:17.718Z,98336.16
2019-06-10T20:12:48.287Z,98329.20
2019-06-10T20:15:22.585Z,98320.33
2019-06-10T20:17:54.058Z,98328.08
2019-06-10T20:20:24.368Z,98323.31
2019-06-10T20:22:57.402Z,98318.61
2019-06-10T20:25:26.712Z,98327.29
2019-06-10T20:27:56.935Z,98320.05
2019-06-10T20:30:29.085Z,98326.22
2019-06-10T20:32:59.522Z,98323.82
2019-06-10T20:35:32.490Z,98328.17
2019-06-10T20:38:04.643Z,98326.50
2019-06-10T20:40:35.492Z,98324.79
2019-06-10T20:43:07.092Z,98320.61
2019-06-10T20:45:37.684Z,98326.83
2019-06-10T20:48:08.174Z,98329.19
2019-06-10T20:50:39.082Z,98346.91
2019-06-10T20:53:15.427Z,98344.72
2019-06-10T20:55:49.789Z,98340.19
2019-06-10T20:58:13.788Z,98339.27
2019-06-10T21:00:49.047Z,98329.19
2019-06-10T21:03:16.038Z,98321.91
2019-06-10T21:05:50.161Z,98334.90
2019-06-10T21:08:22.647Z,98345.98
2019-06-10T21:10:54.563Z,98337.91
2019-06-10T21:13:24.545Z,98342.59
2019-06-10T21:15:57.168Z,98347.83
2019-06-10T21:18:27.171Z,98350.99
2019-06-10T21:20:57.709Z,98354.96
2019-06-10T21:23:27.960Z,98357.25
2019-06-10T21:25:59.283Z,98368.85
2019-06-10T21:28:29.533Z,98368.39
2019-06-10T21:31:02.487Z,98363.71
2019-06-10T21:33:33.305Z,98351.89
2019-06-10T21:36:04.192Z,98353.92
2019-06-10T21:38:34.513Z,98353.94
2019-06-10T21:41:05.361Z,98338.83
2019-06-10T21:43:35.654Z,98328.43
2019-06-10T21:46:06.010Z,98309.94
2019-06-10T21:48:36.328Z,98303.59
2019-06-10T21:51:06.651Z,98304.43
2019-06-10T21:53:36.887Z,98292.83
2019-06-10T21:56:07.102Z,98306.66
2019-06-10T21:58:37.458Z,98304.98
2019-06-10T22:01:12.874Z,98305.31
2019-06-10T22:03:39.655Z,98294.22
2019-06-10T22:06:11.946Z,98283.22
2019-06-10T22:08:42.429Z,98296.77
2019-06-10T22:11:13.982Z,98305.84
2019-06-10T22:13:44.191Z,98317.56
2019-06-10T22:16:14.401Z,98308.09
2019-06-10T22:18:44.786Z,98304.56
2019-06-10T22:21:15.733Z,98307.39
2019-06-10T22:23:46.682Z,98311.74
2019-06-10T22:26:17.265Z,98298.25
2019-06-10T22:28:47.556Z,98319.06
2019-06-10T22:31:22.994Z,98323.72
2019-06-10T22:33:49.752Z,98323.21
2019-06-10T22:36:23.008Z,98311.77
2019-06-10T22:38:55.804Z,98304.13
2019-06-10T22:41:24.300Z,98310.20
2019-06-10T22:43:57.376Z,98312.00
2019-06-10T22:46:26.484Z,98312.53
2019-06-10T22:48:57.743Z,98316.22
2019-06-10T22:51:28.010Z,98323.52
2019-06-10T22:54:00.182Z,98345.34
2019-06-10T22:56:31.382Z,98353.18
2019-06-10T22:59:03.350Z,98364.17
2019-06-10T23:01:38.004Z,98373.08
2019-06-10T23:04:06.643Z,98375.42
2019-06-10T23:06:36.932Z,98374.72
2019-06-10T23:09:07.839Z,98380.43
2019-06-10T23:11:38.055Z,98367.92
2019-06-10T23:14:08.249Z,98362.15
2019-06-10T23:16:39.604Z,98355.14
2019-06-10T23:19:09.817Z,98346.52
2019-06-10T23:21:42.436Z,98338.45
2019-06-10T23:24:13.481Z,98334.09
2019-06-10T23:26:43.979Z,98324.37
2019-06-10T23:29:14.202Z,98319.44
2019-06-10T23:31:52.123Z,98328.73
2019-06-10T23:34:19.764Z,98324.30
2019-06-10T23:36:48.351Z,98322.48
2019-06-10T23:39:18.571Z,98330.91
2019-06-10T23:41:48.793Z,98331.34
2019-06-10T23:44:19.016Z,98331.02
2019-06-10T23:46:49.250Z,98316.82
2019-06-10T23:49:19.584Z,98314.44
2019-06-10T23:51:49.788Z,98310.38
2019-06-10T23:54:20.011Z,98320.10
2019-06-10T23:56:50.236Z,98328.99
2019-06-10T23:59:22.503Z,98327.95
